Skip Navigation LinksHome page > Weather > Current weather Skip Navigation Links

Current Weather

Sarh, Chad

For information only: do not use for flight planning or navigation.
Latest weather
Observation time Sunday, April 19, 2015 7:00 PM WAT
Local time Sunday, April 19, 2015 8:03 PM WAT
Flight conditions Visual Meteorological Conditions
Winds
Wind speed calm
Visibility 6.2 mi.
Sky condition
Ceiling unlimited
Sky clear
Temperature 93°F
Dewpoint 57°F
Altimeter 29.80 in.Hg
Derived measurements
Relative humidity 30%
Heat index 93°F
Density altitude 2889 ft.
Remarks
Ceiling and visibility OK.
METAR FTTA 191800Z 00000KT CAVOK 34/14 Q1009

Settings

Location code

InnerDrive.Weather 4.0.5567.0 Release CLR 4.0.30319.34014
Copyright ©2015 Inner Drive Technology. All rights reserved. Portions Copyright ©1986-2015 David Braverman.

Find weather

Site navigation


Skip Navigation Links

Place info

Page info

PayPal - The safer, easier way to pay online!

Return home.

Copyright ©2015 Inner Drive Technology. Purveyors of fine, hand-crafted computer software. Page printed 2015-04-19T19:03:29 UTC.